Time;durP1;ratioP1;P1;durP2;ratioP2;P2;SDS_P1;SDS_P2;PMS_P1;PMS_P2;Temp;Humidity;BMP_temperature;BMP_pressure;BME280_temperature;BME280_humidity;BME280_pressure;Samples;Min_cycle;Max_cycle;Signal;HPM_P1;HPM_P2
2022/01/20 00:02:27;;;;;;;10.63;1.98;;;6.10;99.90;;;;;;6278803;22;20431;-80
2022/01/20 00:05:07;;;;;;;15.95;2.30;;;6.10;99.90;;;;;;6279198;22;20447;-79
2022/01/20 00:26:24;;;;;;;12.40;2.03;;;6.10;99.90;;;;;;6278992;22;20022;-80
2022/01/20 00:28:53;;;;;;;11.63;1.92;;;6.10;99.90;;;;;;6278870;22;20011;-80
2022/01/20 00:31:49;;;;;;;5.38;1.33;;;6.20;99.90;;;;;;6251263;22;20451;-80
2022/01/20 00:34:19;;;;;;;13.38;1.65;;;6.20;99.90;;;;;;6251514;22;20051;-80
2022/01/20 00:39:29;;;;;;;12.40;1.63;;;6.20;99.90;;;;;;6251423;22;20070;-80
2022/01/20 00:41:56;;;;;;;12.73;2.38;;;6.10;99.90;;;;;;6251555;22;20020;-80
2022/01/20 00:44:24;;;;;;;17.63;1.40;;;6.10;99.90;;;;;;6251391;22;20015;-81
2022/01/20 00:46:49;;;;;;;6.07;1.60;;;6.10;99.90;;;;;;6251274;22;20077;-81
2022/01/20 00:49:15;;;;;;;22.63;3.97;;;6.00;99.90;;;;;;6251343;22;20019;-81
2022/01/20 00:51:42;;;;;;;4.55;1.17;;;6.00;99.90;;;;;;6278328;22;20024;-82
2022/01/20 00:54:07;;;;;;;10.40;1.05;;;5.80;99.90;;;;;;6251250;22;20016;-82
2022/01/20 00:56:33;;;;;;;9.18;1.27;;;5.60;99.90;;;;;;6251122;22;20082;-82
2022/01/20 00:58:59;;;;;;;7.05;1.38;;;5.50;99.90;;;;;;6251221;22;20081;-82
2022/01/20 01:01:25;;;;;;;7.32;1.50;;;5.40;99.90;;;;;;6251639;22;20043;-82
2022/01/20 01:03:51;;;;;;;10.15;1.20;;;5.30;99.90;;;;;;6251113;22;20019;-82
2022/01/20 01:08:48;;;;;;;9.38;1.10;;;5.30;99.90;;;;;;6250969;22;20359;-82
2022/01/20 01:11:14;;;;;;;13.60;1.77;;;5.30;99.90;;;;;;6250426;22;20388;-82
2022/01/20 01:13:39;;;;;;;12.10;1.38;;;5.30;99.90;;;;;;6278173;22;20024;-81
2022/01/20 01:16:09;;;;;;;10.90;1.52;;;5.20;99.90;;;;;;6251076;22;20061;-81
2022/01/20 01:21:43;;;;;;;9.75;1.33;;;5.30;99.90;;;;;;6250942;22;20046;-81
2022/01/20 01:24:09;;;;;;;12.57;1.45;;;5.30;99.90;;;;;;6251090;22;20020;-82
2022/01/20 01:26:35;;;;;;;11.30;1.40;;;5.30;99.90;;;;;;6278115;22;20018;-81
2022/01/20 01:29:04;;;;;;;13.98;1.55;;;5.40;99.90;;;;;;6278373;22;20016;-81
2022/01/20 01:33:59;;;;;;;10.88;1.85;;;5.60;99.90;;;;;;6250962;22;20091;-81
2022/01/20 01:36:28;;;;;;;10.90;2.03;;;5.60;99.90;;;;;;6250824;22;20015;-81
2022/01/20 01:38:54;;;;;;;13.88;2.13;;;5.70;99.90;;;;;;6250872;22;20012;-80
2022/01/20 01:41:29;;;;;;;9.57;1.52;;;5.60;99.90;;;;;;6250724;22;20019;-80
2022/01/20 01:43:56;;;;;;;10.32;1.23;;;5.60;99.90;;;;;;6250809;22;20019;-81
2022/01/20 01:46:22;;;;;;;8.55;2.17;;;5.60;99.90;;;;;;6250726;22;20057;-81
2022/01/20 01:48:48;;;;;;;14.88;1.83;;;5.60;99.90;;;;;;6250742;22;20020;-81
2022/01/20 01:51:14;;;;;;;6.18;1.30;;;5.60;99.90;;;;;;6250610;22;20016;-81
2022/01/20 01:53:40;;;;;;;10.02;2.35;;;5.50;99.90;;;;;;6250800;22;20047;-81
2022/01/20 01:56:07;;;;;;;11.07;1.90;;;5.50;99.90;;;;;;6250617;22;20431;-81
2022/01/20 01:58:33;;;;;;;10.10;2.55;;;5.40;99.90;;;;;;6250607;22;20019;-80
2022/01/20 02:00:59;;;;;;;5.50;1.38;;;5.40;99.90;;;;;;6250627;22;20093;-80
2022/01/20 02:03:25;;;;;;;5.88;1.00;;;5.20;99.90;;;;;;6250442;22;20016;-81
2022/01/20 02:08:43;;;;;;;11.25;2.90;;;5.10;99.90;;;;;;6277674;22;20443;-80
2022/01/20 02:19:23;;;;;;;7.03;2.15;;;4.90;99.90;;;;;;6277861;22;20027;-80
2022/01/20 02:22:01;;;;;;;17.08;4.05;;;4.90;99.90;;;;;;6277571;22;20016;-80
2022/01/20 02:24:28;;;;;;;15.57;2.00;;;4.90;99.90;;;;;;6250391;22;20463;-81
2022/01/20 02:26:53;;;;;;;13.25;3.42;;;5.00;99.90;;;;;;6250449;22;20024;-80
2022/01/20 02:29:19;;;;;;;26.63;2.45;;;5.00;99.90;;;;;;6250436;22;20023;-82
2022/01/20 02:31:45;;;;;;;17.95;3.13;;;5.10;99.90;;;;;;6277239;22;20023;-78
2022/01/20 02:34:13;;;;;;;16.38;2.67;;;5.10;99.90;;;;;;6250280;22;20023;-78
2022/01/20 02:36:43;;;;;;;18.50;2.83;;;5.10;99.90;;;;;;6250269;22;20598;-82
2022/01/20 02:39:47;;;;;;;18.15;4.45;;;5.10;99.90;;;;;;6250313;22;20034;-81
2022/01/20 02:44:53;;;;;;;12.50;2.38;;;5.10;99.90;;;;;;6277659;22;20022;-81
2022/01/20 02:47:26;;;;;;;14.70;3.17;;;5.10;99.90;;;;;;6250329;22;20019;-81
2022/01/20 02:49:51;;;;;;;15.80;3.22;;;5.00;99.90;;;;;;6250167;22;20458;-80
2022/01/20 02:52:17;;;;;;;17.42;2.85;;;5.00;99.90;;;;;;6250193;22;20098;-81
2022/01/20 02:54:44;;;;;;;21.90;3.47;;;5.00;99.90;;;;;;6250016;22;20023;-81
2022/01/20 02:57:10;;;;;;;18.63;4.38;;;5.00;99.90;;;;;;6250097;22;20023;-80
2022/01/20 02:59:36;;;;;;;16.65;2.53;;;5.00;99.90;;;;;;6250108;22;20573;-80
2022/01/20 03:02:04;;;;;;;16.35;3.63;;;5.00;99.90;;;;;;6277416;22;20011;-80
2022/01/20 03:04:30;;;;;;;11.10;2.22;;;5.00;99.90;;;;;;6249989;22;20012;-80
2022/01/20 03:06:57;;;;;;;8.95;1.45;;;4.90;99.90;;;;;;6250037;22;20324;-80
2022/01/20 03:09:23;;;;;;;9.70;1.73;;;4.90;99.90;;;;;;6249950;22;20019;-80
2022/01/20 03:11:49;;;;;;;7.75;1.48;;;4.90;99.90;;;;;;6249993;22;20016;-80
2022/01/20 03:14:17;;;;;;;12.07;1.88;;;4.90;99.90;;;;;;6249865;22;20320;-80
2022/01/20 03:16:44;;;;;;;9.23;1.60;;;4.90;99.90;;;;;;6249891;22;20020;-80
2022/01/20 03:19:10;;;;;;;13.23;1.73;;;4.90;99.90;;;;;;6249890;22;20016;-80
2022/01/20 03:21:36;;;;;;;13.73;1.88;;;4.90;99.90;;;;;;6249837;22;20016;-80
2022/01/20 03:24:02;;;;;;;8.23;2.17;;;4.90;99.90;;;;;;6249959;22;20027;-80
2022/01/20 03:26:28;;;;;;;13.68;1.83;;;4.90;99.90;;;;;;6249825;22;20007;-80
2022/01/20 03:28:53;;;;;;;4.85;1.23;;;4.90;99.90;;;;;;6249887;22;20020;-80
2022/01/20 03:31:19;;;;;;;6.28;1.35;;;4.80;99.90;;;;;;6249790;22;20061;-80
2022/01/20 03:33:45;;;;;;;6.30;1.38;;;4.80;99.90;;;;;;6250092;22;20077;-80
2022/01/20 03:36:10;;;;;;;12.35;2.20;;;4.80;99.90;;;;;;6252025;22;20023;-80
2022/01/20 03:38:36;;;;;;;3.40;0.85;;;4.80;99.90;;;;;;6252104;22;20024;-80
2022/01/20 03:41:01;;;;;;;7.75;1.23;;;4.80;99.90;;;;;;6279411;22;20034;-80
2022/01/20 03:43:27;;;;;;;7.03;1.10;;;4.80;99.90;;;;;;6251961;22;20085;-80
2022/01/20 03:45:56;;;;;;;18.20;2.13;;;4.80;99.90;;;;;;6279304;22;20023;-80
2022/01/20 03:48:26;;;;;;;8.95;1.92;;;4.90;99.90;;;;;;6279316;22;20016;-80
2022/01/20 03:51:01;;;;;;;8.43;1.75;;;4.80;99.90;;;;;;6251860;22;20023;-80
2022/01/20 03:53:38;;;;;;;6.88;1.45;;;4.80;99.90;;;;;;6279333;22;20047;-80
2022/01/20 03:56:04;;;;;;;9.18;1.48;;;4.80;99.90;;;;;;6251866;22;20072;-79
2022/01/20 03:58:30;;;;;;;14.40;1.25;;;4.80;99.90;;;;;;6251841;22;20016;-79
2022/01/20 04:00:56;;;;;;;7.40;1.58;;;4.80;99.90;;;;;;6251818;22;20447;-79
2022/01/20 04:03:22;;;;;;;10.90;1.50;;;4.70;99.90;;;;;;6278649;22;20027;-81
2022/01/20 04:05:57;;;;;;;7.88;1.92;;;4.70;99.90;;;;;;6251661;22;20086;-79
2022/01/20 04:08:25;;;;;;;9.02;1.55;;;4.70;99.90;;;;;;6279182;22;20020;-80
2022/01/20 04:10:51;;;;;;;10.32;1.75;;;4.70;99.90;;;;;;6251742;22;20019;-80
2022/01/20 04:13:18;;;;;;;10.05;2.30;;;4.70;99.90;;;;;;6251654;22;20015;-80
2022/01/20 04:15:44;;;;;;;14.57;2.72;;;4.70;99.90;;;;;;6278707;22;20070;-80
2022/01/20 04:18:13;;;;;;;13.45;2.20;;;4.70;99.90;;;;;;6279050;22;20041;-80
2022/01/20 04:20:40;;;;;;;17.33;3.20;;;4.60;99.90;;;;;;6278705;22;20317;-80
2022/01/20 04:23:06;;;;;;;12.40;1.90;;;4.50;99.90;;;;;;6251395;22;20020;-79
2022/01/20 04:25:31;;;;;;;21.00;1.92;;;4.50;99.90;;;;;;6251558;22;20018;-80
2022/01/20 04:27:57;;;;;;;8.07;3.38;;;4.50;99.90;;;;;;6251563;22;20016;-80
2022/01/20 04:30:23;;;;;;;11.98;2.75;;;4.50;99.90;;;;;;6251531;22;20069;-79
2022/01/20 04:32:48;;;;;;;8.63;1.45;;;4.50;99.90;;;;;;6251340;22;20058;-79
2022/01/20 04:35:18;;;;;;;13.82;2.30;;;4.50;99.90;;;;;;6251520;22;20011;-79
2022/01/20 04:37:44;;;;;;;9.13;1.33;;;4.40;99.90;;;;;;6252349;22;20109;-79
2022/01/20 04:40:10;;;;;;;13.82;2.42;;;4.40;99.90;;;;;;6251316;22;20020;-79
2022/01/20 04:42:38;;;;;;;12.82;1.85;;;4.20;99.90;;;;;;6278757;22;20019;-80
2022/01/20 04:45:08;;;;;;;17.60;1.60;;;3.90;99.90;;;;;;6251099;22;20498;-80
2022/01/20 04:58:18;;;;;;;2.72;0.95;;;3.40;99.90;;;;;;6251199;22;20394;-78
2022/01/20 05:00:43;;;;;;;9.98;1.40;;;3.50;99.90;;;;;;6278648;22;20020;-78
2022/01/20 05:03:09;;;;;;;9.98;1.40;;;3.60;99.90;;;;;;6278482;22;20016;-78
2022/01/20 05:05:35;;;;;;;11.68;3.13;;;3.60;99.90;;;;;;6251173;22;20091;-81
2022/01/20 05:08:01;;;;;;;19.00;1.80;;;3.60;99.90;;;;;;6251108;22;20093;-81
2022/01/20 05:10:30;;;;;;;8.57;1.30;;;3.70;99.90;;;;;;6251154;22;20016;-81
2022/01/20 05:15:23;;;;;;;13.00;2.33;;;3.80;99.90;;;;;;6251065;22;20024;-80
2022/01/20 05:17:49;;;;;;;9.27;2.00;;;3.80;99.90;;;;;;6278405;22;20020;-80
2022/01/20 05:20:15;;;;;;;13.57;2.35;;;3.90;99.90;;;;;;6278231;22;20031;-80
2022/01/20 05:22:41;;;;;;;9.57;1.67;;;3.90;99.90;;;;;;6278276;22;20077;-80
2022/01/20 05:25:07;;;;;;;14.93;2.95;;;3.90;99.90;;;;;;6278106;22;20439;-80
2022/01/20 05:27:33;;;;;;;9.07;2.60;;;4.00;99.90;;;;;;6278268;22;20022;-80
2022/01/20 05:29:59;;;;;;;11.60;2.53;;;4.00;99.90;;;;;;6278188;22;20008;-80
2022/01/20 05:32:25;;;;;;;8.65;0.98;;;4.00;99.90;;;;;;6277879;22;20018;-80
2022/01/20 05:34:51;;;;;;;10.95;2.13;;;4.10;99.90;;;;;;6278080;22;20027;-81
2022/01/20 05:37:17;;;;;;;8.00;2.05;;;4.10;99.90;;;;;;6250888;22;20011;-80
2022/01/20 05:39:44;;;;;;;16.63;2.28;;;4.10;99.90;;;;;;6250887;22;20122;-80
2022/01/20 05:42:10;;;;;;;12.68;2.30;;;4.10;99.90;;;;;;6250712;22;20019;-80
2022/01/20 05:44:36;;;;;;;13.73;2.63;;;4.10;99.90;;;;;;6250721;22;20012;-80
2022/01/20 05:47:09;;;;;;;9.88;1.73;;;4.00;99.90;;;;;;6250755;22;20111;-80
2022/01/20 05:49:35;;;;;;;15.15;1.63;;;3.90;99.90;;;;;;6250654;22;20022;-80
2022/01/20 05:52:00;;;;;;;7.90;1.40;;;3.90;99.90;;;;;;6250456;22;20023;-80
2022/01/20 05:54:26;;;;;;;14.90;2.45;;;4.00;99.90;;;;;;6277686;22;20023;-80
2022/01/20 05:56:52;;;;;;;9.15;1.67;;;4.00;99.90;;;;;;6250348;22;20055;-80
2022/01/20 05:59:18;;;;;;;11.05;2.10;;;4.00;99.90;;;;;;6250675;22;20344;-81
2022/01/20 06:01:51;;;;;;;13.20;2.63;;;4.00;99.90;;;;;;6250559;22;20015;-80
2022/01/20 06:04:17;;;;;;;10.75;1.92;;;3.90;99.90;;;;;;6250644;22;20051;-80
2022/01/20 06:06:44;;;;;;;8.18;1.50;;;3.90;99.90;;;;;;6250612;22;20019;-79
2022/01/20 06:09:10;;;;;;;12.73;1.98;;;3.90;99.90;;;;;;6250611;22;20030;-79
2022/01/20 06:11:36;;;;;;;10.25;2.15;;;3.90;99.90;;;;;;6250436;22;20344;-80
2022/01/20 06:14:02;;;;;;;9.38;1.92;;;3.90;99.90;;;;;;6250405;22;20015;-81
2022/01/20 06:16:28;;;;;;;6.97;0.80;;;3.80;99.90;;;;;;6250485;22;20083;-77
2022/01/20 06:18:54;;;;;;;8.73;1.50;;;3.80;99.90;;;;;;6250498;22;20023;-78
2022/01/20 06:21:19;;;;;;;10.52;2.28;;;3.60;99.90;;;;;;6250363;22;20026;-78
2022/01/20 06:23:45;;;;;;;13.00;1.60;;;3.60;99.90;;;;;;6250431;22;20022;-77
2022/01/20 06:26:11;;;;;;;5.72;1.15;;;3.60;99.90;;;;;;6277342;22;20336;-77
2022/01/20 06:28:40;;;;;;;11.18;1.90;;;3.60;99.90;;;;;;6250289;22;20020;-77
2022/01/20 06:31:06;;;;;;;10.57;1.80;;;3.60;99.90;;;;;;6250103;22;20340;-77
2022/01/20 06:33:32;;;;;;;10.23;1.85;;;3.70;99.90;;;;;;6250265;22;20458;-77
2022/01/20 06:35:57;;;;;;;7.25;1.30;;;3.70;99.90;;;;;;6250312;22;20055;-77
2022/01/20 06:38:24;;;;;;;7.97;2.03;;;3.70;99.90;;;;;;6250353;22;20023;-77
2022/01/20 06:40:49;;;;;;;10.13;2.25;;;3.70;99.90;;;;;;6250267;22;20058;-77
2022/01/20 06:43:16;;;;;;;15.20;1.77;;;3.70;99.90;;;;;;6250190;22;20023;-77
2022/01/20 06:45:42;;;;;;;10.00;1.83;;;3.80;99.90;;;;;;6250237;22;20440;-77
2022/01/20 06:48:08;;;;;;;14.57;2.60;;;3.70;99.90;;;;;;6250249;22;20015;-77
2022/01/20 06:50:34;;;;;;;14.73;2.03;;;3.80;99.90;;;;;;6250137;22;20419;-77
2022/01/20 06:53:00;;;;;;;9.57;2.05;;;3.90;99.90;;;;;;6250251;22;20054;-77
2022/01/20 06:55:25;;;;;;;13.90;2.60;;;3.90;99.90;;;;;;6250142;22;20026;-77
2022/01/20 06:57:51;;;;;;;7.25;2.10;;;3.80;99.90;;;;;;6250113;22;20024;-77
2022/01/20 07:00:20;;;;;;;9.50;2.47;;;3.80;99.90;;;;;;6250101;22;20455;-77
2022/01/20 07:02:46;;;;;;;3.45;1.80;;;3.80;99.90;;;;;;6249976;22;20023;-77
2022/01/20 07:05:14;;;;;;;7.22;1.27;;;3.80;99.90;;;;;;6249958;22;20020;-77
2022/01/20 07:07:40;;;;;;;10.85;1.48;;;3.80;99.90;;;;;;6277073;22;20320;-77
2022/01/20 07:10:06;;;;;;;12.43;1.85;;;3.90;99.90;;;;;;6250785;22;20050;-77
2022/01/20 07:12:32;;;;;;;11.70;2.08;;;3.80;99.90;;;;;;6250082;22;20387;-77
2022/01/20 07:14:58;;;;;;;11.07;1.45;;;3.90;99.90;;;;;;6250345;22;20019;-77
2022/01/20 07:17:23;;;;;;;5.15;1.35;;;3.90;99.90;;;;;;6277411;22;20019;-77
2022/01/20 07:19:49;;;;;;;10.63;1.75;;;3.80;99.90;;;;;;6249780;22;20316;-77
2022/01/20 07:22:15;;;;;;;11.18;1.80;;;3.90;99.90;;;;;;6249481;22;20016;-77
2022/01/20 07:24:41;;;;;;;7.22;1.88;;;3.80;99.90;;;;;;6249493;22;20051;-77
2022/01/20 07:27:08;;;;;;;10.55;1.95;;;3.90;99.90;;;;;;6248847;22;20015;-77
2022/01/20 07:29:34;;;;;;;7.35;1.75;;;3.80;99.90;;;;;;6247873;22;20027;-77
2022/01/20 07:32:03;;;;;;;9.80;2.58;;;3.90;99.90;;;;;;6248448;22;20051;-77
2022/01/20 07:34:29;;;;;;;5.75;1.38;;;3.90;99.90;;;;;;6248324;22;20015;-77
2022/01/20 07:36:55;;;;;;;12.32;2.15;;;4.00;99.90;;;;;;6248757;22;20093;-77
2022/01/20 07:39:20;;;;;;;9.27;2.30;;;4.00;99.90;;;;;;6249062;22;20020;-77
2022/01/20 07:41:47;;;;;;;11.38;2.60;;;3.90;99.90;;;;;;6249493;22;20012;-77
2022/01/20 07:44:14;;;;;;;9.32;2.30;;;3.80;99.90;;;;;;6247604;22;20095;-77
2022/01/20 07:46:40;;;;;;;17.95;2.20;;;3.70;99.90;;;;;;6249441;22;20367;-77
2022/01/20 07:49:06;;;;;;;11.65;2.65;;;3.80;99.90;;;;;;6277025;22;20020;-77
2022/01/20 07:51:31;;;;;;;9.48;2.40;;;3.80;99.90;;;;;;6249735;22;20042;-77
2022/01/20 07:53:57;;;;;;;20.08;3.67;;;3.80;99.90;;;;;;6249500;22;20339;-77
2022/01/20 07:56:23;;;;;;;11.65;2.15;;;3.90;99.90;;;;;;6249667;22;20368;-78
2022/01/20 07:58:48;;;;;;;13.68;2.35;;;4.00;99.90;;;;;;6249493;22;20016;-78
2022/01/20 08:01:14;;;;;;;13.93;2.72;;;4.00;99.90;;;;;;6249573;22;20455;-78
2022/01/20 08:03:39;;;;;;;15.30;3.25;;;4.00;99.90;;;;;;6249651;22;20024;-78
2022/01/20 08:06:05;;;;;;;7.32;2.20;;;4.00;99.90;;;;;;6249677;22;20016;-77
2022/01/20 08:08:31;;;;;;;14.80;3.13;;;4.10;99.90;;;;;;6276648;22;20055;-77
2022/01/20 08:10:57;;;;;;;10.68;2.50;;;4.10;99.90;;;;;;6248714;22;20046;-78
2022/01/20 08:13:22;;;;;;;11.13;2.42;;;4.00;99.90;;;;;;6248278;22;20019;-82
2022/01/20 08:15:48;;;;;;;8.00;1.95;;;4.10;99.90;;;;;;6249389;22;20020;-78
2022/01/20 08:18:14;;;;;;;19.25;2.53;;;4.10;99.90;;;;;;6249503;22;20023;-78
2022/01/20 08:20:40;;;;;;;12.20;2.47;;;4.00;99.90;;;;;;6250278;22;20019;-79
2022/01/20 08:23:06;;;;;;;11.50;1.65;;;3.90;99.90;;;;;;6251353;22;20048;-79
2022/01/20 08:25:33;;;;;;;15.02;3.28;;;3.70;99.90;;;;;;6251391;22;20015;-78
2022/01/20 08:27:59;;;;;;;9.18;2.42;;;3.70;99.90;;;;;;6251363;22;20015;-78
2022/01/20 08:30:25;;;;;;;8.63;1.90;;;3.60;99.90;;;;;;6251231;22;20089;-78
2022/01/20 08:32:51;;;;;;;10.65;1.80;;;3.60;99.90;;;;;;6278195;22;20470;-78
2022/01/20 08:35:20;;;;;;;6.68;1.50;;;3.60;99.90;;;;;;6251357;22;20023;-78
2022/01/20 08:37:46;;;;;;;7.10;1.88;;;3.60;99.90;;;;;;6251363;22;20012;-79
2022/01/20 08:40:18;;;;;;;9.55;1.65;;;3.60;99.90;;;;;;6251168;22;20061;-78
2022/01/20 08:42:46;;;;;;;6.27;1.27;;;3.60;99.90;;;;;;6251185;22;20027;-78
2022/01/20 08:45:14;;;;;;;5.50;1.98;;;3.70;99.90;;;;;;6278341;22;20024;-79
2022/01/20 08:47:40;;;;;;;8.60;2.50;;;3.70;99.90;;;;;;6249985;22;20094;-78
2022/01/20 08:50:06;;;;;;;7.20;1.35;;;3.60;99.90;;;;;;6250985;22;20043;-78
2022/01/20 08:52:32;;;;;;;12.10;1.58;;;3.60;99.90;;;;;;6250965;22;20018;-79
2022/01/20 08:54:58;;;;;;;13.68;2.17;;;3.50;99.90;;;;;;6250749;22;20043;-78
2022/01/20 08:57:25;;;;;;;14.05;2.05;;;3.50;99.90;;;;;;6277885;22;20027;-78
2022/01/20 08:59:51;;;;;;;19.23;2.70;;;3.40;99.90;;;;;;6278338;22;20011;-80
2022/01/20 09:02:17;;;;;;;7.63;1.98;;;3.40;99.90;;;;;;6250639;22;20027;-78
2022/01/20 09:04:43;;;;;;;10.38;1.63;;;3.40;99.90;;;;;;6251285;22;20094;-78
2022/01/20 09:07:09;;;;;;;13.35;2.25;;;3.40;99.90;;;;;;6278283;22;20012;-78
2022/01/20 09:09:40;;;;;;;14.48;2.70;;;3.40;99.90;;;;;;6250724;22;20020;-78
2022/01/20 09:17:30;;;;;;;7.18;1.50;;;3.50;99.90;;;;;;6278147;22;20086;-79
2022/01/20 09:19:58;;;;;;;11.52;1.50;;;3.60;99.90;;;;;;6277973;22;20019;-78
2022/01/20 09:22:25;;;;;;;26.73;3.33;;;3.70;99.90;;;;;;6249493;22;20020;-78
2022/01/20 09:24:50;;;;;;;14.88;3.03;;;3.70;99.90;;;;;;6250575;22;20016;-78
2022/01/20 09:27:17;;;;;;;11.30;2.50;;;3.80;99.90;;;;;;6250343;22;20020;-78
2022/01/20 09:29:45;;;;;;;12.15;1.73;;;4.00;99.90;;;;;;6250458;22;20087;-78
2022/01/20 09:32:12;;;;;;;5.68;1.40;;;4.00;99.90;;;;;;6249596;22;20026;-78
2022/01/20 09:34:40;;;;;;;12.88;2.53;;;4.00;99.90;;;;;;6250201;22;20069;-77
2022/01/20 09:37:06;;;;;;;6.70;1.40;;;3.90;99.90;;;;;;6250615;22;20008;-78
2022/01/20 09:39:31;;;;;;;11.93;3.00;;;3.90;99.90;;;;;;6277450;22;20015;-78
2022/01/20 09:41:58;;;;;;;15.80;2.13;;;3.90;99.90;;;;;;6250431;22;20012;-78
2022/01/20 09:44:24;;;;;;;7.55;1.20;;;4.10;99.90;;;;;;6250179;22;20084;-78
2022/01/20 09:46:50;;;;;;;5.07;1.10;;;4.00;99.90;;;;;;6250315;22;20016;-78
2022/01/20 09:49:16;;;;;;;8.30;1.48;;;3.90;99.90;;;;;;6250449;22;20011;-77
2022/01/20 09:51:42;;;;;;;9.63;1.60;;;3.80;99.90;;;;;;6250228;22;20439;-77
2022/01/20 09:54:09;;;;;;;9.77;1.30;;;3.70;99.90;;;;;;6250084;22;20023;-77
2022/01/20 09:56:35;;;;;;;13.43;1.35;;;3.70;99.90;;;;;;6250061;22;20055;-77
2022/01/20 09:59:02;;;;;;;15.55;1.92;;;3.70;99.90;;;;;;6277665;22;20019;-77
2022/01/20 10:01:48;;;;;;;8.80;1.95;;;3.80;99.90;;;;;;6249898;22;20020;-77
2022/01/20 10:04:21;;;;;;;10.77;1.90;;;4.00;99.90;;;;;;6250671;22;20030;-77
2022/01/20 10:06:54;;;;;;;7.43;1.38;;;4.10;99.90;;;;;;6250375;22;20011;-77
2022/01/20 10:09:45;;;;;;;10.88;1.48;;;4.20;99.90;;;;;;6249802;22;20101;-78
2022/01/20 10:12:14;;;;;;;9.95;1.45;;;4.30;99.90;;;;;;6250182;22;20047;-78
2022/01/20 10:14:46;;;;;;;10.60;1.98;;;4.40;99.90;;;;;;6249851;22;20057;-78
2022/01/20 10:17:20;;;;;;;8.60;2.83;;;4.40;99.90;;;;;;6250450;22;20015;-78
2022/01/20 10:19:55;;;;;;;10.35;1.92;;;4.40;99.90;;;;;;6276772;22;20012;-78
2022/01/20 10:22:23;;;;;;;6.95;1.23;;;4.40;99.90;;;;;;6277352;22;20066;-77
2022/01/20 10:25:08;;;;;;;6.63;1.63;;;4.30;99.90;;;;;;6260793;22;20452;-77
2022/01/20 10:27:57;;;;;;;11.50;2.55;;;4.40;99.90;;;;;;6277305;22;20032;-78
2022/01/20 10:30:26;;;;;;;12.70;2.92;;;4.50;99.90;;;;;;6250074;22;20061;-78
2022/01/20 10:32:59;;;;;;;9.82;1.55;;;4.70;99.90;;;;;;6276725;22;20011;-79
2022/01/20 10:35:33;;;;;;;17.20;2.40;;;4.80;99.90;;;;;;6249574;22;20024;-79
2022/01/20 10:38:11;;;;;;;13.23;3.03;;;4.90;99.90;;;;;;6249506;22;20012;-83
2022/01/20 10:40:49;;;;;;;14.57;2.85;;;5.00;99.90;;;;;;6249935;22;20031;-78
2022/01/20 10:43:20;;;;;;;10.63;1.48;;;4.90;99.90;;;;;;6249765;22;20473;-79
2022/01/20 10:45:46;;;;;;;4.82;0.70;;;4.80;99.90;;;;;;6250010;22;20023;-78
2022/01/20 10:48:18;;;;;;;12.48;0.32;;;4.70;99.90;;;;;;6250118;22;20020;-79
2022/01/20 10:50:44;;;;;;;10.77;1.55;;;4.60;99.90;;;;;;6249227;22;20012;-79
2022/01/20 10:53:17;;;;;;;6.40;1.27;;;4.40;99.90;;;;;;6249898;22;20054;-79
2022/01/20 10:55:43;;;;;;;2.83;0.70;;;4.50;99.90;;;;;;6249977;22;20027;-79
2022/01/20 10:58:11;;;;;;;15.15;2.88;;;4.50;99.90;;;;;;6248988;22;20019;-78
2022/01/20 11:00:46;;;;;;;14.60;2.47;;;4.50;99.90;;;;;;6249632;22;20015;-78
2022/01/20 11:03:13;;;;;;;10.98;1.90;;;4.60;99.90;;;;;;6249863;22;20019;-78
2022/01/20 11:05:40;;;;;;;12.73;2.72;;;4.80;99.90;;;;;;6276803;22;20023;-77
2022/01/20 11:08:07;;;;;;;14.88;2.40;;;4.90;99.90;;;;;;6277143;22;20011;-81
2022/01/20 11:10:32;;;;;;;17.88;2.38;;;4.90;99.90;;;;;;6249523;22;20016;-77
2022/01/20 11:12:58;;;;;;;10.20;2.40;;;4.70;99.90;;;;;;6249595;22;20509;-83
2022/01/20 11:15:26;;;;;;;12.60;1.85;;;4.50;99.90;;;;;;6249567;22;20015;-77
2022/01/20 11:17:56;;;;;;;5.43;2.00;;;4.40;99.90;;;;;;6277418;22;20034;-78
2022/01/20 11:20:26;;;;;;;4.03;1.10;;;4.20;99.90;;;;;;6249537;22;20027;-77
2022/01/20 11:22:59;;;;;;;6.60;0.90;;;4.20;99.90;;;;;;6249589;22;20020;-76
2022/01/20 11:25:28;;;;;;;10.52;1.88;;;4.20;99.90;;;;;;6249633;22;20459;-78
2022/01/20 11:28:12;;;;;;;7.70;1.48;;;4.20;99.90;;;;;;6249802;22;20443;-78
2022/01/20 11:30:42;;;;;;;11.60;1.90;;;4.40;99.90;;;;;;6249375;22;20043;-81
2022/01/20 11:33:16;;;;;;;8.27;2.92;;;4.50;99.90;;;;;;6276574;22;20023;-80
2022/01/20 11:35:49;;;;;;;16.92;2.83;;;4.60;99.90;;;;;;6249665;22;20011;-79
2022/01/20 11:38:17;;;;;;;13.82;1.63;;;4.70;99.90;;;;;;6276736;22;20023;-79
2022/01/20 11:40:54;;;;;;;15.02;2.75;;;4.80;99.90;;;;;;6249443;22;20031;-85
2022/01/20 11:43:52;;;;;;;9.75;1.77;;;4.90;99.90;;;;;;6249513;22;20020;-94
2022/01/20 11:46:25;;;;;;;9.50;1.67;;;5.20;99.90;;;;;;6183901;22;20019;-86
2022/01/20 11:49:01;;;;;;;18.23;3.42;;;5.20;99.90;;;;;;6249365;22;20394;-85
2022/01/20 11:51:41;;;;;;;11.13;2.55;;;5.30;99.90;;;;;;6249232;22;20020;-82
2022/01/20 11:54:06;;;;;;;13.57;2.50;;;5.40;99.90;;;;;;6249427;22;20027;-81
2022/01/20 11:56:36;;;;;;;6.75;1.52;;;5.40;99.90;;;;;;6250863;22;20012;-79
2022/01/20 11:59:06;;;;;;;12.82;1.92;;;5.40;99.90;;;;;;6251309;22;20344;-90
2022/01/20 12:01:55;;;;;;;7.70;1.55;;;5.40;99.90;;;;;;6251489;22;20344;-87
2022/01/20 12:04:31;;;;;;;9.80;1.48;;;5.40;99.90;;;;;;6251495;22;20024;-88
2022/01/20 12:06:57;;;;;;;10.52;1.98;;;5.40;99.90;;;;;;6251452;22;20115;-81
2022/01/20 12:09:35;;;;;;;10.55;2.30;;;5.60;99.90;;;;;;6251608;22;20383;-81
2022/01/20 12:12:03;;;;;;;12.30;1.88;;;5.70;99.90;;;;;;6251499;22;20018;-81
2022/01/20 12:14:36;;;;;;;5.63;1.85;;;5.60;99.90;;;;;;6251431;22;20016;-80
2022/01/20 12:17:03;;;;;;;;;;;5.50;99.90;;;;;;6251913;22;20069;-81
2022/01/20 12:19:30;;;;;;;12.18;1.58;;;5.40;99.90;;;;;;6251475;22;19997;-81
2022/01/20 12:21:55;;;;;;;13.40;2.15;;;5.30;99.90;;;;;;6251279;22;20051;-81
2022/01/20 12:24:21;;;;;;;8.38;1.92;;;5.30;99.90;;;;;;6251300;22;20016;-82
2022/01/20 12:26:47;;;;;;;14.40;2.65;;;5.30;99.90;;;;;;6278814;22;20012;-82
2022/01/20 12:29:13;;;;;;;14.27;2.30;;;5.30;99.90;;;;;;6251332;22;20023;-82
2022/01/20 12:31:48;;;;;;;17.38;2.58;;;5.30;99.90;;;;;;6251000;22;20428;-81
2022/01/20 12:34:14;;;;;;;10.50;1.55;;;5.30;99.90;;;;;;6251434;22;20482;-81
2022/01/20 12:36:39;;;;;;;10.63;1.80;;;5.30;99.90;;;;;;6251306;22;20008;-81
2022/01/20 12:39:06;;;;;;;5.65;1.45;;;5.40;99.90;;;;;;6278261;22;20055;-81
2022/01/20 12:41:32;;;;;;;11.05;2.20;;;5.50;99.90;;;;;;6250892;22;20357;-81
2022/01/20 12:44:05;;;;;;;4.57;1.05;;;5.50;99.90;;;;;;6251304;22;20091;-81
2022/01/20 12:46:36;;;;;;;12.35;2.25;;;5.40;99.90;;;;;;6278642;22;20012;-81
2022/01/20 12:49:09;;;;;;;8.93;1.98;;;5.40;99.90;;;;;;6251181;22;20099;-81
2022/01/20 12:51:50;;;;;;;12.15;2.67;;;5.30;99.90;;;;;;6251246;22;20095;-81
2022/01/20 12:54:18;;;;;;;16.42;2.75;;;5.30;99.90;;;;;;6251217;22;20026;-81
2022/01/20 12:56:50;;;;;;;16.52;1.65;;;5.30;99.90;;;;;;6251127;22;20027;-81
2022/01/20 12:59:27;;;;;;;4.45;0.98;;;5.30;99.90;;;;;;6251045;22;20402;-80
2022/01/20 13:01:55;;;;;;;7.55;1.67;;;5.30;99.90;;;;;;6251014;22;20050;-80
2022/01/20 13:04:24;;;;;;;7.20;1.35;;;5.30;99.90;;;;;;6251020;22;20090;-80
2022/01/20 13:06:55;;;;;;;6.10;1.08;;;5.40;99.90;;;;;;6250990;22;20372;-80
2022/01/20 13:09:23;;;;;;;8.85;1.85;;;5.40;99.90;;;;;;6251026;22;20061;-80
2022/01/20 13:11:59;;;;;;;13.38;2.05;;;5.50;99.90;;;;;;6251107;22;20016;-80
2022/01/20 13:14:37;;;;;;;10.20;2.05;;;5.50;99.90;;;;;;6251113;22;20020;-80
2022/01/20 13:17:04;;;;;;;7.78;1.33;;;5.30;99.90;;;;;;6250951;22;20019;-80
2022/01/20 13:19:49;;;;;;;10.57;1.88;;;5.10;99.90;;;;;;6250997;22;20023;-80
2022/01/20 13:22:42;;;;;;;11.40;2.58;;;5.00;99.90;;;;;;6277882;22;20423;-80
2022/01/20 13:25:10;;;;;;;10.63;1.73;;;5.00;99.90;;;;;;6250980;22;20015;-80
2022/01/20 13:27:37;;;;;;;9.00;1.13;;;4.90;99.90;;;;;;6250834;22;20321;-80
2022/01/20 13:30:04;;;;;;;7.88;1.27;;;5.10;99.90;;;;;;6278179;22;20030;-80
2022/01/20 13:32:30;;;;;;;8.00;3.17;;;5.10;99.90;;;;;;6277705;22;20016;-80
2022/01/20 13:34:58;;;;;;;13.18;2.25;;;5.10;99.90;;;;;;6250715;22;20023;-79
2022/01/20 13:37:26;;;;;;;10.68;2.00;;;5.10;99.90;;;;;;6250706;22;20466;-80
2022/01/20 13:39:57;;;;;;;7.78;1.20;;;4.80;99.90;;;;;;6250654;22;20022;-80
2022/01/20 13:45:14;;;;;;;6.57;1.95;;;4.50;99.90;;;;;;6277605;22;20443;-80
2022/01/20 13:47:55;;;;;;;8.65;1.55;;;4.50;99.90;;;;;;6250617;22;20351;-79
2022/01/20 13:50:35;;;;;;;9.18;2.22;;;4.40;99.90;;;;;;6250645;22;20026;-84
2022/01/20 13:53:10;;;;;;;9.73;2.35;;;4.40;99.90;;;;;;6250533;22;20377;-80
2022/01/20 13:55:38;;;;;;;11.40;1.73;;;4.50;99.90;;;;;;6278025;22;20046;-80
2022/01/20 13:58:05;;;;;;;23.10;3.75;;;4.50;99.90;;;;;;6250578;22;20020;-80
2022/01/20 14:00:34;;;;;;;8.48;3.13;;;4.40;99.90;;;;;;6250343;22;20125;-79
2022/01/20 14:03:00;;;;;;;6.00;1.60;;;4.40;99.90;;;;;;6250346;22;20012;-79